Time;durP1;ratioP1;P1;durP2;ratioP2;P2;SDS_P1;SDS_P2;PMS_P1;PMS_P2;Temp;Humidity;BMP_temperature;BMP_pressure;BME280_temperature;BME280_humidity;BME280_pressure;Samples;Min_cycle;Max_cycle;Signal;HPM_P1;HPM_P2
2021/07/12 10:17:34;;;;;;;8.20;5.32;;;20.30;99.90;;;;;;11927385;28;20125;-63
2021/07/12 10:23:22;;;;;;;6.75;4.78;;;21.30;99.90;;;;;;11895312;28;20066;-62
2021/07/12 10:29:14;;;;;;;7.30;5.20;;;22.70;99.90;;;;;;11875292;28;20042;-62
2021/07/12 10:35:02;;;;;;;8.65;5.65;;;23.40;99.90;;;;;;11900908;28;20053;-61
2021/07/12 10:40:53;;;;;;;8.48;4.80;;;23.50;99.90;;;;;;11925046;28;20049;-62
2021/07/12 10:46:42;;;;;;;7.43;4.72;;;23.60;99.90;;;;;;11920409;28;20049;-62
2021/07/12 10:52:44;;;;;;;9.48;4.75;;;23.60;99.90;;;;;;11957984;28;20464;-63
2021/07/12 10:58:53;;;;;;;4.05;3.33;;;23.90;99.90;;;;;;11956915;28;20113;-63
2021/07/12 11:04:45;;;;;;;7.13;3.70;;;24.30;99.90;;;;;;11938580;28;20050;-71
2021/07/12 11:10:38;;;;;;;3.55;2.97;;;24.00;99.90;;;;;;11864022;28;20054;-64
2021/07/12 11:16:28;;;;;;;51.80;17.13;;;24.10;99.90;;;;;;11903961;28;20468;-70
2021/07/12 11:22:25;;;;;;;5.78;3.60;;;24.10;99.90;;;;;;11926668;28;20054;-71
2021/07/12 11:28:16;;;;;;;12.07;3.60;;;24.00;99.90;;;;;;11903670;28;20463;-63
2021/07/12 11:34:03;;;;;;;7.28;3.63;;;24.30;99.90;;;;;;11869464;28;20050;-62
2021/07/12 11:39:53;;;;;;;4.43;3.03;;;24.50;99.90;;;;;;11895860;28;20046;-63
2021/07/12 11:45:57;;;;;;;8.25;3.83;;;24.60;99.90;;;;;;11897011;28;20438;-60
2021/07/12 11:51:44;;;;;;;;;;;24.80;99.90;;;;;;11925271;28;20038;-66
2021/07/12 11:57:31;;;;;;;6.00;3.53;;;24.70;99.90;;;;;;11911001;28;19970;-66
2021/07/12 12:03:19;;;;;;;7.45;3.55;;;24.40;99.90;;;;;;11897743;28;20061;-66
2021/07/12 12:09:06;;;;;;;7.65;3.90;;;24.00;99.90;;;;;;11820478;28;20076;-67
2021/07/12 12:15:00;;;;;;;6.20;3.67;;;24.00;99.90;;;;;;11879784;28;20046;-66
2021/07/12 12:20:50;;;;;;;5.50;3.78;;;23.40;99.90;;;;;;11880545;28;20734;-64
2021/07/12 12:26:37;;;;;;;4.38;3.78;;;23.30;99.90;;;;;;11877536;28;20574;-66
2021/07/12 12:32:31;;;;;;;6.35;4.57;;;23.40;99.90;;;;;;11863621;28;20065;-65
2021/07/12 12:38:20;;;;;;;5.20;3.75;;;23.40;99.90;;;;;;11892916;28;20073;-66
2021/07/12 12:44:09;;;;;;;7.82;4.20;;;23.60;99.90;;;;;;11882436;28;20057;-66
2021/07/12 12:49:56;;;;;;;4.80;3.90;;;23.70;99.90;;;;;;11863081;28;20050;-66
2021/07/12 12:55:59;;;;;;;5.25;3.70;;;23.90;99.90;;;;;;11864551;28;20374;-66
2021/07/12 13:01:47;;;;;;;5.30;4.00;;;24.10;99.90;;;;;;11837135;28;20043;-66
2021/07/12 13:07:45;;;;;;;4.00;3.17;;;24.20;99.90;;;;;;11863749;28;20046;-66
2021/07/12 13:13:36;;;;;;;5.97;3.30;;;24.80;99.90;;;;;;11881451;28;20054;-66
2021/07/12 13:19:28;;;;;;;6.30;4.28;;;25.30;99.90;;;;;;11882382;28;20041;-66
2021/07/12 13:25:17;;;;;;;5.93;3.72;;;25.30;99.90;;;;;;11840406;28;20183;-66
2021/07/12 13:31:06;;;;;;;4.70;3.70;;;25.20;99.90;;;;;;11840702;28;20053;-65
2021/07/12 13:36:53;;;;;;;4.80;3.85;;;25.50;99.90;;;;;;11836903;28;20050;-65
2021/07/12 13:42:40;;;;;;;7.43;4.85;;;25.50;99.90;;;;;;11843648;28;20082;-66
2021/07/12 13:48:28;;;;;;;6.90;4.57;;;25.50;99.90;;;;;;11876906;28;20045;-66
2021/07/12 13:54:15;;;;;;;6.40;4.57;;;25.50;99.90;;;;;;11866543;28;20053;-66
2021/07/12 14:00:04;;;;;;;3.80;3.47;;;25.40;99.90;;;;;;11833093;28;20058;-66
2021/07/12 14:05:52;;;;;;;5.32;4.03;;;25.30;99.90;;;;;;11850910;28;20061;-66
2021/07/12 14:11:39;;;;;;;4.45;3.80;;;25.00;99.90;;;;;;11877626;28;20144;-67
2021/07/12 14:17:26;;;;;;;4.78;4.28;;;24.40;99.90;;;;;;11878863;28;20054;-67
2021/07/12 14:23:14;;;;;;;6.00;4.03;;;24.20;99.90;;;;;;11879533;28;20049;-67
2021/07/12 14:29:01;;;;;;;5.20;4.28;;;24.20;99.90;;;;;;11878870;28;20786;-67
2021/07/12 14:34:49;;;;;;;6.65;3.80;;;25.00;99.90;;;;;;11870009;28;20054;-66
2021/07/12 14:40:38;;;;;;;5.72;4.00;;;25.00;99.90;;;;;;11880594;28;20641;-66
2021/07/12 14:46:25;;;;;;;3.80;3.50;;;25.00;99.90;;;;;;11854804;28;20069;-66
2021/07/12 14:52:12;;;;;;;4.90;3.67;;;25.10;99.90;;;;;;11831257;28;22119;-66
2021/07/12 14:58:00;;;;;;;5.90;3.88;;;25.20;99.90;;;;;;11830815;28;20069;-65
2021/07/12 15:03:47;;;;;;;4.03;3.70;;;25.30;99.90;;;;;;11877938;28;20437;-65
2021/07/12 15:09:34;;;;;;;4.63;3.25;;;25.50;99.90;;;;;;11886013;28;20069;-65
2021/07/12 15:15:23;;;;;;;6.75;3.00;;;25.70;99.90;;;;;;11851615;28;20290;-65
2021/07/12 15:21:10;;;;;;;3.90;2.78;;;26.10;99.90;;;;;;11849128;28;20054;-65
2021/07/12 15:26:57;;;;;;;3.20;2.85;;;26.60;99.90;;;;;;11866937;28;20053;-65
2021/07/12 15:32:46;;;;;;;2.90;2.40;;;27.10;96.60;;;;;;11888369;28;20054;-64
2021/07/12 15:38:33;;;;;;;3.15;2.50;;;27.20;98.20;;;;;;11878349;28;20773;-65
2021/07/12 15:44:20;;;;;;;3.53;2.72;;;27.50;94.40;;;;;;11840422;28;20065;-66
2021/07/12 15:50:10;;;;;;;2.80;2.60;;;27.40;97.00;;;;;;11844296;28;20105;-65
2021/07/12 15:55:59;;;;;;;3.00;2.67;;;29.40;92.30;;;;;;11861692;28;20050;-65
2021/07/12 16:01:49;;;;;;;2.40;2.20;;;29.90;88.00;;;;;;11886892;28;20046;-65
2021/07/12 16:07:37;;;;;;;3.20;2.72;;;30.20;87.50;;;;;;11886460;28;20058;-65
2021/07/12 16:13:24;;;;;;;3.13;2.88;;;29.20;86.00;;;;;;11884594;28;20591;-66
2021/07/12 16:19:11;;;;;;;5.20;3.15;;;28.50;90.00;;;;;;11889424;28;20367;-66
2021/07/12 16:24:59;;;;;;;6.63;3.10;;;28.20;88.40;;;;;;11860229;28;20073;-66
2021/07/12 16:30:49;;;;;;;3.45;2.83;;;27.40;91.40;;;;;;11829803;28;20419;-63
2021/07/12 16:36:36;;;;;;;8.88;3.50;;;26.60;91.20;;;;;;11844715;28;20556;-63
2021/07/12 16:42:26;;;;;;;4.68;3.65;;;26.00;94.00;;;;;;11872102;28;20049;-62
2021/07/12 16:48:12;;;;;;;4.03;3.63;;;25.40;95.30;;;;;;11892099;28;20108;-62
2021/07/12 16:53:59;;;;;;;7.20;3.65;;;25.00;96.40;;;;;;11820410;28;20447;-62
2021/07/12 16:59:48;;;;;;;15.02;5.10;;;24.60;97.70;;;;;;11869677;28;20050;-64
2021/07/12 17:05:35;;;;;;;19.48;8.05;;;24.30;99.90;;;;;;11874877;28;20050;-66
2021/07/12 17:11:22;;;;;;;22.70;9.98;;;23.40;99.90;;;;;;11872421;28;20042;-66
2021/07/12 17:17:14;;;;;;;17.00;9.02;;;23.20;99.90;;;;;;11883877;28;20053;-67
2021/07/12 17:23:01;;;;;;;12.57;7.47;;;23.00;99.90;;;;;;11878320;28;20066;-67
2021/07/12 17:28:48;;;;;;;10.13;5.20;;;22.60;99.90;;;;;;11857754;28;20050;-65
2021/07/12 17:34:36;;;;;;;8.95;4.40;;;22.30;99.90;;;;;;11878780;28;20567;-66
2021/07/12 17:40:23;;;;;;;6.88;1.98;;;21.60;99.90;;;;;;11885855;28;20107;-66
2021/07/12 17:46:11;;;;;;;5.60;1.92;;;20.90;99.90;;;;;;11879861;28;20050;-65
2021/07/12 17:51:59;;;;;;;4.10;2.15;;;20.40;99.90;;;;;;11882126;28;20046;-65
2021/07/12 17:57:46;;;;;;;4.03;2.17;;;20.30;99.90;;;;;;11881403;28;20457;-67
2021/07/12 18:03:35;;;;;;;4.88;2.28;;;20.50;99.90;;;;;;11881567;28;20591;-65
2021/07/12 18:09:23;;;;;;;8.77;2.92;;;20.80;99.90;;;;;;11838012;28;20572;-65
2021/07/12 18:15:11;;;;;;;11.65;3.53;;;21.30;99.90;;;;;;11822273;28;20051;-67
2021/07/12 18:20:58;;;;;;;6.97;3.10;;;21.40;99.90;;;;;;11821450;28;20054;-66
2021/07/12 18:26:47;;;;;;;8.88;3.40;;;21.40;99.90;;;;;;11810287;28;20043;-66
2021/07/12 18:32:36;;;;;;;15.00;3.58;;;21.30;99.90;;;;;;11797856;28;20050;-67
2021/07/12 18:38:23;;;;;;;6.00;3.20;;;21.30;99.90;;;;;;11813000;28;20530;-66
2021/07/12 18:44:11;;;;;;;11.63;2.92;;;21.50;99.90;;;;;;11847463;28;20074;-68
2021/07/12 18:49:58;;;;;;;8.52;2.47;;;21.60;99.90;;;;;;11850031;28;20057;-64
2021/07/12 18:55:45;;;;;;;7.72;2.75;;;21.70;99.90;;;;;;11845174;28;20050;-65
2021/07/12 19:01:34;;;;;;;25.33;11.05;;;21.80;99.90;;;;;;11848195;28;20460;-65
2021/07/12 19:07:21;;;;;;;7.28;3.00;;;21.70;99.90;;;;;;11847564;28;20055;-65
2021/07/12 19:13:07;;;;;;;11.63;4.53;;;21.70;99.90;;;;;;11857055;28;20045;-66
2021/07/12 19:18:57;;;;;;;6.40;2.97;;;21.80;99.90;;;;;;11824158;28;20054;-66
2021/07/12 19:24:44;;;;;;;6.97;3.22;;;21.80;99.90;;;;;;11847166;28;20056;-64
2021/07/12 19:30:31;;;;;;;4.45;2.80;;;21.90;99.90;;;;;;11862732;28;20498;-64
